Time;durP1;ratioP1;P1;durP2;ratioP2;P2;SDS_P1;SDS_P2;PMS_P1;PMS_P2;Temp;Humidity;BMP_temperature;BMP_pressure;BME280_temperature;BME280_humidity;BME280_pressure;Samples;Min_cycle;Max_cycle;Signal;HPM_P1;HPM_P2
2024/01/03 00:01:30;;;;;;;12.40;2.75;;;;;;;10.17;85.16;98715.16;5019205;28;20022;-62
2024/01/03 00:03:55;;;;;;;13.80;3.30;;;;;;;10.18;85.22;98722.09;5018050;28;20033;-63
2024/01/03 00:06:21;;;;;;;10.38;2.75;;;;;;;10.20;83.69;98713.97;5019394;28;20429;-63
2024/01/03 00:08:46;;;;;;;12.70;2.85;;;;;;;10.18;84.35;98724.75;5016408;28;20034;-63
2024/01/03 00:11:19;;;;;;;13.50;3.13;;;;;;;10.20;84.95;98729.91;5013973;28;20029;-63
2024/01/03 00:14:04;;;;;;;14.93;3.05;;;;;;;10.21;85.84;98730.72;5021373;28;20036;-62
2024/01/03 00:16:29;;;;;;;11.20;2.65;;;;;;;10.17;84.50;98736.38;5017849;28;20029;-63
2024/01/03 00:18:58;;;;;;;11.70;2.65;;;;;;;10.16;85.03;98739.19;5021310;28;20497;-63
2024/01/03 00:21:25;;;;;;;12.43;3.03;;;;;;;10.10;86.16;98745.16;5018820;28;20398;-63
2024/01/03 00:23:58;;;;;;;15.73;3.70;;;;;;;10.09;87.40;98765.56;5019966;28;20041;-63
2024/01/03 00:26:24;;;;;;;18.20;3.28;;;;;;;10.08;87.15;98757.78;5014892;28;20120;-63
2024/01/03 00:28:50;;;;;;;18.88;3.33;;;;;;;10.07;87.88;98770.19;5019008;28;20026;-62
2024/01/03 00:31:27;;;;;;;15.50;3.70;;;;;;;10.03;87.64;98776.00;5018069;28;20030;-62
2024/01/03 00:33:53;;;;;;;14.77;3.00;;;;;;;10.02;88.75;98761.91;5017954;28;20040;-62
2024/01/03 00:36:18;;;;;;;24.50;4.28;;;;;;;10.00;89.71;98772.66;5018523;28;20030;-63
2024/01/03 00:38:44;;;;;;;18.88;4.10;;;;;;;9.99;90.65;98778.97;5016691;28;20038;-62
2024/01/03 00:41:09;;;;;;;21.90;4.60;;;;;;;9.97;91.84;98780.94;5014746;28;20040;-63
2024/01/03 00:43:39;;;;;;;15.23;3.92;;;;;;;9.97;93.11;98796.03;5018535;28;20021;-62
2024/01/03 00:46:05;;;;;;;;;;;;;;;10.02;93.81;98793.72;5014015;28;20037;-63
2024/01/03 00:48:31;;;;;;;23.40;4.47;;;;;;;9.95;94.13;98800.69;5016956;28;19917;-63
2024/01/03 00:50:56;;;;;;;18.98;4.60;;;;;;;9.94;94.97;98791.91;5015760;28;20080;-62
2024/01/03 00:53:23;;;;;;;25.77;4.45;;;;;;;9.95;95.90;98800.69;5018086;28;20376;-63
2024/01/03 00:55:48;;;;;;;23.00;4.57;;;;;;;9.91;98.14;98796.69;5013638;28;20031;-63
2024/01/03 00:58:14;;;;;;;21.08;5.05;;;;;;;9.86;98.87;98791.91;5021045;28;20067;-63
2024/01/03 01:00:40;;;;;;;22.42;4.18;;;;;;;9.86;99.37;98796.34;5019611;28;20056;-62
2024/01/03 01:03:06;;;;;;;17.95;4.07;;;;;;;9.81;100.00;98795.03;5019475;28;20038;-63
2024/01/03 01:05:32;;;;;;;20.15;4.90;;;;;;;9.77;100.00;98803.47;5019432;28;20101;-63
2024/01/03 01:07:58;;;;;;;25.02;4.75;;;;;;;9.76;100.00;98815.09;5023258;28;20047;-63
2024/01/03 01:10:23;;;;;;;25.90;4.93;;;;;;;9.74;100.00;98811.75;5019714;28;20021;-63
2024/01/03 01:12:48;;;;;;;24.20;4.82;;;;;;;9.70;100.00;98808.59;5025037;28;20041;-63
2024/01/03 01:15:13;;;;;;;23.65;4.75;;;;;;;9.72;100.00;98806.59;5022121;28;20037;-62
2024/01/03 01:17:39;;;;;;;25.75;4.75;;;;;;;9.73;100.00;98805.63;5020668;28;20030;-63
2024/01/03 01:20:05;;;;;;;24.48;5.68;;;;;;;9.71;100.00;98812.91;5020963;28;20103;-62
2024/01/03 01:22:30;;;;;;;21.90;4.78;;;;;;;9.72;100.00;98817.19;5020870;28;20083;-62
2024/01/03 01:24:55;;;;;;;22.20;4.65;;;;;;;9.73;100.00;98818.88;5019701;28;20030;-63
2024/01/03 01:27:21;;;;;;;29.10;5.45;;;;;;;9.72;100.00;98814.53;5022436;28;20117;-63
2024/01/03 01:29:46;;;;;;;27.23;4.70;;;;;;;9.70;100.00;98819.19;5019701;28;20029;-63
2024/01/03 01:32:11;;;;;;;21.25;4.72;;;;;;;9.70;100.00;98813.88;5023838;28;20383;-63
2024/01/03 01:34:36;;;;;;;18.88;4.32;;;;;;;9.70;100.00;98815.72;5021580;28;20026;-63
2024/01/03 01:37:02;;;;;;;23.33;4.60;;;;;;;9.71;100.00;98815.56;5021818;28;20040;-63
2024/01/03 01:39:27;;;;;;;23.40;5.40;;;;;;;9.71;100.00;98817.34;5022020;28;20026;-63
2024/01/03 01:41:52;;;;;;;20.67;4.63;;;;;;;9.72;100.00;98819.84;5023078;28;20025;-63
2024/01/03 01:44:18;;;;;;;23.00;4.72;;;;;;;9.72;100.00;98822.50;5018872;28;20022;-63
2024/01/03 01:46:45;;;;;;;26.50;4.82;;;;;;;9.73;100.00;98818.88;5020761;28;20018;-63
2024/01/03 01:49:10;;;;;;;23.77;4.70;;;;;;;9.74;100.00;98831.16;5021385;28;20038;-63
2024/01/03 01:51:37;;;;;;;19.85;4.75;;;;;;;9.80;99.97;98841.09;5023612;28;20033;-63
2024/01/03 01:54:03;;;;;;;20.67;4.22;;;;;;;9.81;99.16;98833.97;5016222;28;20799;-62
2024/01/03 01:56:29;;;;;;;18.63;4.47;;;;;;;9.85;99.06;98848.56;5022362;28;20069;-62
2024/01/03 01:58:56;;;;;;;19.23;4.68;;;;;;;9.87;98.45;98832.50;5022368;28;20029;-63
2024/01/03 02:01:22;;;;;;;17.73;4.35;;;;;;;9.91;97.49;98832.00;5022783;28;20030;-62
2024/01/03 02:03:50;;;;;;;24.30;4.97;;;;;;;9.92;98.87;98854.88;5020759;28;20030;-62
2024/01/03 02:06:16;;;;;;;23.42;4.88;;;;;;;9.92;99.30;98856.69;5020313;28;20053;-62
2024/01/03 02:08:41;;;;;;;22.50;4.53;;;;;;;9.90;100.00;98864.81;5018806;28;20527;-62
2024/01/03 02:11:06;;;;;;;25.45;4.90;;;;;;;9.87;100.00;98883.69;5019714;28;20029;-62
2024/01/03 02:13:32;;;;;;;24.02;4.63;;;;;;;9.86;100.00;98870.59;5017824;28;20399;-63
2024/01/03 02:15:57;;;;;;;22.65;4.68;;;;;;;9.84;100.00;98873.41;5021313;28;20034;-62
2024/01/03 02:18:24;;;;;;;26.58;6.07;;;;;;;9.81;100.00;98869.28;5020803;28;20022;-63
2024/01/03 02:20:52;;;;;;;27.98;5.32;;;;;;;9.79;100.00;98870.41;5020410;28;20447;-62
2024/01/03 02:23:17;;;;;;;19.15;4.63;;;;;;;9.76;100.00;98870.75;5019125;28;20026;-62
2024/01/03 02:25:42;;;;;;;24.55;5.50;;;;;;;9.77;100.00;98888.31;5021317;28;20071;-62
2024/01/03 02:28:10;;;;;;;22.63;4.95;;;;;;;9.74;100.00;98881.50;5016455;28;20025;-62
2024/01/03 02:30:36;;;;;;;23.48;5.05;;;;;;;9.70;100.00;98877.50;5020053;28;20029;-62
2024/01/03 02:33:01;;;;;;;21.38;5.00;;;;;;;9.67;100.00;98877.81;5019879;28;20037;-62
2024/01/03 02:35:26;;;;;;;23.58;4.50;;;;;;;9.64;100.00;98878.13;5021579;28;20030;-62
2024/01/03 02:37:52;;;;;;;23.85;4.70;;;;;;;9.65;100.00;98890.41;5015937;28;20068;-62
2024/01/03 02:40:17;;;;;;;19.85;4.53;;;;;;;9.64;100.00;98878.13;5020454;28;20032;-63
2024/01/03 02:42:42;;;;;;;22.15;5.18;;;;;;;9.62;100.00;98878.31;5017022;28;20497;-63
2024/01/03 02:45:08;;;;;;;21.52;4.70;;;;;;;9.61;100.00;98878.50;5019445;28;20032;-63
2024/01/03 02:47:33;;;;;;;26.88;5.10;;;;;;;9.62;100.00;98888.91;5014962;28;20022;-63
2024/01/03 02:49:58;;;;;;;21.75;4.95;;;;;;;9.61;100.00;98881.97;5019981;28;20052;-63
2024/01/03 02:52:25;;;;;;;17.10;3.95;;;;;;;9.61;100.00;98895.22;5017662;28;20045;-62
2024/01/03 02:54:51;;;;;;;23.05;4.97;;;;;;;9.61;100.00;98884.59;5021892;28;20026;-63
2024/01/03 02:57:16;;;;;;;22.88;4.40;;;;;;;9.61;100.00;98889.09;5021711;28;20033;-63
2024/01/03 02:59:41;;;;;;;25.23;4.80;;;;;;;9.61;100.00;98892.56;5021397;28;20109;-63
2024/01/03 03:02:07;;;;;;;24.15;4.78;;;;;;;9.60;100.00;98892.72;5018717;28;20025;-63
2024/01/03 03:04:32;;;;;;;17.15;4.60;;;;;;;9.58;100.00;98898.19;5021285;28;20163;-62
2024/01/03 03:06:57;;;;;;;20.73;4.50;;;;;;;9.60;100.00;98904.13;5017702;28;20036;-63
2024/01/03 03:09:23;;;;;;;25.10;4.78;;;;;;;9.60;100.00;98892.72;5019961;28;20655;-63
2024/01/03 03:11:48;;;;;;;19.98;4.53;;;;;;;9.61;100.00;98894.38;5017912;28;20030;-63
2024/01/03 03:14:14;;;;;;;24.42;4.68;;;;;;;9.61;100.00;98892.56;5018663;28;20036;-63
2024/01/03 03:16:39;;;;;;;21.38;4.45;;;;;;;9.62;100.00;98890.72;5008651;28;20471;-62
2024/01/03 03:19:05;;;;;;;25.67;4.78;;;;;;;9.63;100.00;98889.75;5019042;28;20030;-63
2024/01/03 03:21:30;;;;;;;20.17;4.47;;;;;;;9.61;100.00;98895.22;5018028;28;20025;-63
2024/01/03 03:23:55;;;;;;;23.83;4.72;;;;;;;9.61;100.00;98903.16;5017893;28;20061;-63
2024/01/03 03:26:20;;;;;;;20.25;5.03;;;;;;;9.58;100.00;98898.19;5015670;28;20028;-63
2024/01/03 03:28:46;;;;;;;27.55;4.60;;;;;;;9.59;100.00;98901.66;5019247;28;20026;-63
2024/01/03 03:31:11;;;;;;;23.50;4.80;;;;;;;9.57;100.00;98912.41;5022108;28;20026;-63
2024/01/03 03:33:38;;;;;;;24.35;4.93;;;;;;;9.55;100.00;98905.63;5014742;28;20041;-63
2024/01/03 03:36:11;;;;;;;28.40;5.30;;;;;;;9.54;100.00;98909.25;5020207;28;20120;-63
2024/01/03 03:38:36;;;;;;;24.58;5.43;;;;;;;9.51;100.00;98902.47;5018413;28;20038;-63
2024/01/03 03:41:01;;;;;;;22.50;4.32;;;;;;;9.47;100.00;98903.75;5016165;28;20029;-63
2024/01/03 03:43:27;;;;;;;25.20;4.75;;;;;;;9.47;100.00;98897.63;5018557;28;20038;-63
2024/01/03 03:45:52;;;;;;;27.23;5.50;;;;;;;9.43;100.00;98905.88;5019678;28;20505;-63
2024/01/03 03:48:17;;;;;;;25.40;5.20;;;;;;;9.41;100.00;98894.63;5017398;28;20029;-63
2024/01/03 03:50:42;;;;;;;19.42;4.45;;;;;;;9.40;100.00;98903.56;5015309;28;20050;-63
2024/01/03 03:53:10;;;;;;;23.58;4.93;;;;;;;9.36;100.00;98890.78;5020657;28;20065;-64
2024/01/03 03:55:39;;;;;;;25.90;5.10;;;;;;;9.32;100.00;98895.56;5015608;28;20372;-63
2024/01/03 03:58:04;;;;;;;21.35;4.30;;;;;;;9.29;100.00;98890.56;5019212;28;20041;-64
2024/01/03 04:00:30;;;;;;;24.73;4.43;;;;;;;9.30;100.00;98902.84;5003559;28;20033;-63
2024/01/03 04:02:55;;;;;;;23.67;4.30;;;;;;;9.25;100.00;98898.00;5021098;28;20473;-63
2024/01/03 04:05:20;;;;;;;26.05;4.82;;;;;;;9.26;100.00;98906.81;5014959;28;20030;-63
2024/01/03 04:07:46;;;;;;;19.85;3.97;;;;;;;9.28;100.00;98904.00;5019302;28;20129;-63
2024/01/03 04:10:11;;;;;;;23.17;4.00;;;;;;;9.28;100.00;98909.28;5016608;28;20483;-63
2024/01/03 04:12:38;;;;;;;16.42;3.85;;;;;;;9.23;100.00;98902.63;5021094;28;20119;-63
2024/01/03 04:15:04;;;;;;;16.40;3.90;;;;;;;9.25;100.00;98907.78;5014844;28;20475;-63
2024/01/03 04:17:29;;;;;;;14.85;3.60;;;;;;;9.22;100.00;98910.75;5016669;28;20143;-63
2024/01/03 04:19:55;;;;;;;15.13;3.72;;;;;;;9.24;100.00;98911.41;5020045;28;20025;-63
2024/01/03 04:22:21;;;;;;;18.25;3.35;;;;;;;9.21;100.00;98914.38;5017397;28;20040;-63
2024/01/03 04:24:46;;;;;;;17.23;3.65;;;;;;;9.22;100.00;98929.28;5015375;28;20022;-64
2024/01/03 04:27:12;;;;;;;18.38;3.88;;;;;;;9.19;100.00;98911.03;5021812;28;20514;-63
2024/01/03 04:29:37;;;;;;;16.13;3.83;;;;;;;9.18;100.00;98915.53;5013385;28;20039;-63
2024/01/03 04:32:02;;;;;;;17.20;3.42;;;;;;;9.14;100.00;98921.28;5020177;28;20475;-63
2024/01/03 04:34:28;;;;;;;20.63;3.70;;;;;;;9.12;100.00;98918.78;5025155;28;20026;-63
2024/01/03 04:36:53;;;;;;;18.33;3.15;;;;;;;9.13;100.00;98922.28;5023827;28;20386;-63
2024/01/03 04:39:18;;;;;;;12.82;3.38;;;;;;;9.12;100.00;98923.25;5019748;28;20025;-63
2024/01/03 04:41:43;;;;;;;14.20;2.88;;;;;;;9.11;100.00;98914.50;5021404;28;20017;-63
2024/01/03 04:44:09;;;;;;;16.23;3.65;;;;;;;9.11;100.00;98911.84;5017427;28;20026;-63
2024/01/03 04:46:34;;;;;;;13.48;2.70;;;;;;;9.12;100.00;98917.97;5021167;28;20030;-63
2024/01/03 04:48:59;;;;;;;14.70;3.13;;;;;;;9.13;100.00;98915.16;5020316;28;20099;-63
2024/01/03 04:51:24;;;;;;;11.45;2.47;;;;;;;9.13;100.00;98927.59;5020964;28;20014;-63
2024/01/03 04:53:51;;;;;;;12.63;2.72;;;;;;;9.13;100.00;98928.41;5020484;28;20461;-63
2024/01/03 04:56:17;;;;;;;13.55;2.67;;;;;;;9.13;100.00;98922.28;5020785;28;20094;-63
2024/01/03 04:58:42;;;;;;;10.63;3.28;;;;;;;9.12;100.00;98925.91;5022424;28;20029;-63
2024/01/03 05:01:07;;;;;;;8.98;2.22;;;;;;;9.12;100.00;98923.25;5023403;28;20088;-63
2024/01/03 05:03:33;;;;;;;12.82;2.70;;;;;;;9.12;100.00;98920.59;5020874;28;20026;-63
2024/01/03 05:05:58;;;;;;;9.88;2.55;;;;;;;9.13;100.00;98932.88;5019728;28;20030;-63
2024/01/03 05:08:23;;;;;;;11.13;2.75;;;;;;;9.11;100.00;98935.69;5019563;28;20121;-63
2024/01/03 05:10:48;;;;;;;11.95;2.40;;;;;;;9.10;100.00;98939.31;5023313;28;20030;-63
2024/01/03 05:13:14;;;;;;;7.57;2.15;;;;;;;9.07;100.00;98932.47;5017766;28;20036;-63
2024/01/03 05:15:39;;;;;;;15.98;2.90;;;;;;;9.05;100.00;98931.00;5022002;28;20030;-64
2024/01/03 05:18:04;;;;;;;6.55;2.33;;;;;;;9.03;100.00;98931.16;5020703;28;20053;-64
2024/01/03 05:20:29;;;;;;;8.25;2.33;;;;;;;9.02;100.00;98924.19;5016359;28;20025;-63
2024/01/03 05:22:55;;;;;;;12.52;2.42;;;;;;;8.98;100.00;98936.06;5022694;28;20044;-63
2024/01/03 05:25:20;;;;;;;12.23;2.90;;;;;;;8.98;100.00;98932.59;5019105;28;20022;-64
2024/01/03 05:27:45;;;;;;;6.88;1.70;;;;;;;8.97;100.00;98928.28;5022398;28;20463;-63
2024/01/03 05:30:11;;;;;;;8.63;2.38;;;;;;;8.92;100.00;98925.28;5021905;28;20030;-63
2024/01/03 05:32:36;;;;;;;8.80;2.40;;;;;;;8.89;100.00;98929.03;5022514;28;20029;-63
2024/01/03 05:35:02;;;;;;;4.80;1.80;;;;;;;8.87;100.00;98938.97;5019413;28;20406;-63
2024/01/03 05:37:27;;;;;;;10.25;2.47;;;;;;;8.85;100.00;98931.16;5018336;28;20030;-63
2024/01/03 05:39:52;;;;;;;8.80;2.55;;;;;;;8.83;100.00;98927.03;5020254;28;20034;-64
2024/01/03 05:42:18;;;;;;;10.77;2.90;;;;;;;8.81;100.00;98927.19;5021971;28;20488;-63
2024/01/03 05:44:43;;;;;;;11.27;2.10;;;;;;;8.79;100.00;98938.91;5015360;28;20022;-64
2024/01/03 05:47:09;;;;;;;9.27;2.10;;;;;;;8.77;100.00;98933.75;5021619;28;20124;-64
2024/01/03 05:49:34;;;;;;;7.28;2.20;;;;;;;8.75;100.00;98932.25;5017631;28;20049;-64
2024/01/03 05:51:59;;;;;;;11.63;2.83;;;;;;;8.74;100.00;98925.28;5020255;28;20030;-64
2024/01/03 05:54:25;;;;;;;8.15;2.30;;;;;;;8.68;100.00;98935.50;5018630;28;20044;-64
2024/01/03 05:56:50;;;;;;;9.60;2.28;;;;;;;8.66;100.00;98931.34;5021437;28;20115;-64
2024/01/03 05:59:15;;;;;;;10.10;2.20;;;;;;;8.66;100.00;98937.47;5019286;28;20483;-64
2024/01/03 06:01:41;;;;;;;8.40;2.70;;;;;;;8.64;100.00;98942.09;5020551;28;20473;-64
2024/01/03 06:04:06;;;;;;;10.27;2.33;;;;;;;8.64;100.00;98939.47;5016482;28;20040;-64
2024/01/03 06:06:31;;;;;;;10.70;2.45;;;;;;;8.62;100.00;98941.41;5020139;28;20032;-64
2024/01/03 06:08:57;;;;;;;11.30;2.60;;;;;;;8.62;100.00;98935.28;5017329;28;20475;-64
2024/01/03 06:11:22;;;;;;;11.50;2.70;;;;;;;8.59;100.00;98941.69;5020529;28;20067;-64
2024/01/03 06:13:51;;;;;;;11.70;2.60;;;;;;;8.59;100.00;98941.69;5019461;28;20419;-64
2024/01/03 06:16:16;;;;;;;10.70;2.60;;;;;;;8.57;100.00;98940.19;5018808;28;20029;-64
2024/01/03 06:18:41;;;;;;;8.60;2.05;;;;;;;8.54;100.00;98940.50;5019008;28;20286;-64
2024/01/03 06:21:10;;;;;;;8.45;2.05;;;;;;;8.52;100.00;98938.81;5012128;28;20611;-64
2024/01/03 06:23:37;;;;;;;7.20;2.08;;;;;;;8.49;100.00;98941.81;5020475;28;20117;-64
2024/01/03 06:26:03;;;;;;;8.88;1.80;;;;;;;8.47;100.00;98946.38;5019487;28;20056;-65
2024/01/03 06:28:28;;;;;;;11.80;2.40;;;;;;;8.46;100.00;98941.25;5015961;28;20057;-65
2024/01/03 06:30:53;;;;;;;8.45;1.90;;;;;;;8.44;100.00;98928.19;5013873;28;20104;-64
2024/01/03 06:33:19;;;;;;;6.82;1.70;;;;;;;8.42;100.00;98929.28;5016588;28;20046;-64
2024/01/03 06:35:44;;;;;;;8.63;2.00;;;;;;;8.40;100.00;98931.25;5018323;28;20472;-65
2024/01/03 06:38:09;;;;;;;6.25;1.90;;;;;;;8.40;100.00;98933.91;5018710;28;20474;-65
2024/01/03 06:40:34;;;;;;;7.45;2.50;;;;;;;8.39;100.00;98935.69;5016174;28;20034;-65
2024/01/03 06:43:00;;;;;;;9.98;2.20;;;;;;;8.38;100.00;98935.88;5017559;28;20030;-65
2024/01/03 06:45:25;;;;;;;5.20;1.60;;;;;;;8.37;100.00;98948.25;5017022;28;20048;-64
2024/01/03 06:47:50;;;;;;;5.68;1.83;;;;;;;8.33;100.00;98944.25;5015690;28;20030;-64
2024/01/03 06:50:16;;;;;;;5.53;1.73;;;;;;;8.31;100.00;98948.84;5019703;28;20042;-64
2024/01/03 06:52:42;;;;;;;4.05;1.45;;;;;;;8.29;100.00;98964.03;5018554;28;20022;-64
2024/01/03 06:55:07;;;;;;;6.30;1.50;;;;;;;8.29;100.00;98970.19;5018008;28;20785;-64
2024/01/03 06:57:33;;;;;;;2.80;1.27;;;;;;;8.26;100.00;98985.47;5011539;28;20026;-64
2024/01/03 06:59:58;;;;;;;3.00;1.35;;;;;;;8.19;100.00;98979.13;5015259;28;20041;-64
2024/01/03 07:02:24;;;;;;;6.90;1.13;;;;;;;8.12;100.00;98990.28;5010243;28;20037;-64
2024/01/03 07:04:50;;;;;;;2.97;1.30;;;;;;;8.02;100.00;98988.69;5014554;28;20049;-64
2024/01/03 07:07:17;;;;;;;3.10;1.00;;;;;;;7.98;100.00;98985.50;5014096;28;20375;-65
2024/01/03 07:09:42;;;;;;;3.33;1.23;;;;;;;7.91;100.00;98985.28;5010460;28;20029;-64
2024/01/03 07:12:08;;;;;;;1.90;1.10;;;;;;;7.85;100.00;98998.22;5011272;28;20406;-64
2024/01/03 07:14:33;;;;;;;1.80;0.88;;;;;;;7.80;100.00;98995.19;5017015;28;20029;-63
2024/01/03 07:16:58;;;;;;;1.40;0.80;;;;;;;7.74;100.00;98992.16;5021334;28;20455;-64
2024/01/03 07:19:24;;;;;;;1.27;0.82;;;;;;;7.71;100.00;98987.16;5017859;28;20042;-64
2024/01/03 07:21:49;;;;;;;1.48;0.70;;;;;;;7.68;100.00;98989.25;5018862;28;20038;-63
2024/01/03 07:24:15;;;;;;;2.25;1.05;;;;;;;7.66;100.00;98989.41;5013138;28;20049;-63
2024/01/03 07:26:40;;;;;;;1.55;0.85;;;;;;;7.65;100.00;98994.84;5016667;28;20041;-64
2024/01/03 07:29:06;;;;;;;2.58;0.90;;;;;;;7.65;100.00;98998.31;5019141;28;20105;-64
2024/01/03 07:31:31;;;;;;;2.55;0.90;;;;;;;7.67;100.00;98998.16;5016345;28;20445;-64
2024/01/03 07:33:56;;;;;;;4.15;1.20;;;;;;;7.68;100.00;98995.38;5012906;28;20036;-64
2024/01/03 07:36:21;;;;;;;2.40;1.23;;;;;;;7.69;100.00;98993.56;5015615;28;20426;-64
2024/01/03 07:38:47;;;;;;;2.95;1.10;;;;;;;7.68;100.00;98999.84;5014633;28;20040;-63
2024/01/03 07:41:17;;;;;;;1.33;0.98;;;;;;;7.66;100.00;99007.03;5013604;28;20531;-64
2024/01/03 07:43:42;;;;;;;2.63;1.02;;;;;;;7.65;100.00;99010.69;5018893;28;20091;-64
2024/01/03 07:46:07;;;;;;;1.80;1.20;;;;;;;7.65;100.00;99002.75;5017171;28;20022;-64
2024/01/03 07:48:33;;;;;;;3.50;1.20;;;;;;;7.63;100.00;99007.34;5017569;28;20021;-66
2024/01/03 07:50:58;;;;;;;2.92;1.40;;;;;;;7.63;100.00;99010.81;5016620;28;20038;-62
2024/01/03 07:53:23;;;;;;;4.40;1.80;;;;;;;7.62;100.00;99010.97;5015605;28;20507;-62
2024/01/03 07:55:48;;;;;;;3.75;1.98;;;;;;;7.61;100.00;99026.00;5015873;28;20032;-62
2024/01/03 07:58:14;;;;;;;5.70;1.80;;;;;;;7.62;100.00;99025.00;5015082;28;20030;-62
2024/01/03 08:00:39;;;;;;;7.70;1.98;;;;;;;7.62;100.00;99017.06;5014488;28;20029;-62
2024/01/03 08:03:04;;;;;;;8.07;2.10;;;;;;;7.64;100.00;99019.56;5012976;28;20038;-62
2024/01/03 08:05:30;;;;;;;9.10;2.20;;;;;;;7.63;100.00;99033.75;5014472;28;20026;-62
2024/01/03 08:07:55;;;;;;;4.75;2.10;;;;;;;7.62;100.00;99022.38;5018810;28;20033;-62
2024/01/03 08:10:21;;;;;;;6.63;2.10;;;;;;;7.59;100.00;99015.56;5020055;28;20056;-62
2024/01/03 08:12:46;;;;;;;6.57;1.77;;;;;;;7.61;100.00;99020.72;5016987;28;20034;-61
2024/01/03 08:15:12;;;;;;;13.07;2.53;;;;;;;7.63;100.00;99025.81;5022820;28;20501;-62
2024/01/03 08:17:38;;;;;;;9.88;2.30;;;;;;;7.63;100.00;99031.13;5019045;28;20053;-62
2024/01/03 08:20:03;;;;;;;11.02;2.30;;;;;;;7.63;100.00;99020.53;5020655;28;20061;-62
2024/01/03 08:22:29;;;;;;;11.02;2.22;;;;;;;7.63;100.00;99034.59;5022947;28;20374;-62
2024/01/03 08:24:54;;;;;;;8.43;2.17;;;;;;;7.63;100.00;99042.53;5011062;28;20030;-62
2024/01/03 08:27:19;;;;;;;10.65;2.47;;;;;;;7.63;100.00;99031.97;5019335;28;20029;-62
2024/01/03 08:29:45;;;;;;;7.93;2.30;;;;;;;7.65;100.00;99039.75;5018906;28;20018;-62
2024/01/03 08:32:11;;;;;;;14.55;2.40;;;;;;;7.66;100.00;99033.47;5021321;28;20034;-61
2024/01/03 08:34:36;;;;;;;13.45;2.67;;;;;;;7.66;100.00;99042.25;5023428;28;20109;-62
2024/01/03 08:37:01;;;;;;;11.45;3.25;;;;;;;7.67;100.00;99038.63;5017344;28;20061;-61
2024/01/03 08:39:27;;;;;;;11.25;2.22;;;;;;;7.68;100.00;99032.38;5021237;28;20018;-62
2024/01/03 08:41:53;;;;;;;12.82;2.67;;;;;;;7.72;100.00;99054.88;5018939;28;20084;-62
2024/01/03 08:44:21;;;;;;;11.23;3.13;;;;;;;7.74;100.00;99030.94;5021475;28;20037;-62
2024/01/03 08:46:47;;;;;;;12.90;3.05;;;;;;;7.74;100.00;99042.38;5022875;28;20029;-62
2024/01/03 08:49:12;;;;;;;16.63;3.20;;;;;;;7.76;100.00;99047.47;5022594;28;20098;-61
2024/01/03 08:51:38;;;;;;;15.32;3.20;;;;;;;7.78;100.00;99034.97;5019888;28;20348;-61
2024/01/03 08:54:03;;;;;;;20.48;4.00;;;;;;;7.81;100.00;99057.63;5024220;28;20066;-61
2024/01/03 08:56:29;;;;;;;21.88;3.38;;;;;;;7.85;100.00;99054.56;5023971;28;20037;-62
2024/01/03 08:58:54;;;;;;;19.45;3.38;;;;;;;7.89;100.00;99049.81;5022954;28;20022;-62
2024/01/03 09:01:22;;;;;;;19.80;3.92;;;;;;;7.90;100.00;99054.97;5022564;28;20037;-62
2024/01/03 09:03:48;;;;;;;20.45;3.90;;;;;;;7.95;100.00;99052.72;5016890;28;20392;-62
2024/01/03 09:06:16;;;;;;;22.35;3.85;;;;;;;7.98;100.00;99048.97;5019046;28;20033;-62
2024/01/03 09:08:42;;;;;;;23.33;4.20;;;;;;;8.04;100.00;99058.13;5018322;28;20029;-62
2024/01/03 09:11:10;;;;;;;23.15;4.13;;;;;;;8.08;100.00;99054.22;5016500;28;20029;-62
2024/01/03 09:13:37;;;;;;;25.70;4.38;;;;;;;8.11;100.00;99060.03;5020556;28;20057;-62
2024/01/03 09:16:03;;;;;;;20.65;4.35;;;;;;;8.14;100.00;99061.53;5010303;28;20029;-62
2024/01/03 09:18:29;;;;;;;19.27;4.38;;;;;;;8.18;100.00;99062.94;5021112;28;20387;-62
2024/01/03 09:20:54;;;;;;;21.30;4.40;;;;;;;8.20;100.00;99060.97;5016902;28;20030;-62
2024/01/03 09:23:19;;;;;;;21.13;3.90;;;;;;;8.24;100.00;99062.31;5015213;28;20080;-62
2024/01/03 09:25:44;;;;;;;24.85;4.63;;;;;;;8.31;100.00;99067.88;5022278;28;20022;-60
2024/01/03 09:28:10;;;;;;;23.77;4.28;;;;;;;8.38;100.00;99076.06;5017111;28;20034;-60
2024/01/03 09:30:36;;;;;;;23.58;4.25;;;;;;;8.44;100.00;99064.91;5023158;28;20037;-59
2024/01/03 09:33:01;;;;;;;19.10;4.35;;;;;;;8.53;100.00;99064.03;5014575;28;20506;-60
2024/01/03 09:35:27;;;;;;;20.50;4.05;;;;;;;8.58;100.00;99077.66;5022401;28;20035;-59
2024/01/03 09:37:52;;;;;;;20.30;3.38;;;;;;;8.63;100.00;99070.09;5020103;28;20030;-60
2024/01/03 09:40:17;;;;;;;17.48;4.60;;;;;;;8.64;100.00;99081.50;5020143;28;20029;-60
2024/01/03 09:42:43;;;;;;;18.58;4.00;;;;;;;8.65;100.00;99073.44;5017967;28;20026;-61
2024/01/03 09:45:09;;;;;;;15.00;3.75;;;;;;;8.66;100.00;99082.19;5017164;28;20391;-61
2024/01/03 09:47:34;;;;;;;19.02;3.50;;;;;;;8.73;100.00;99091.22;5017698;28;20029;-61
2024/01/03 09:49:59;;;;;;;21.17;4.22;;;;;;;8.74;100.00;99070.88;5021070;28;20518;-60
2024/01/03 09:52:26;;;;;;;20.50;4.78;;;;;;;8.79;100.00;99076.53;5018308;28;20032;-60
2024/01/03 09:54:51;;;;;;;22.13;3.95;;;;;;;8.79;100.00;99090.63;5019366;28;20040;-60
2024/01/03 09:57:18;;;;;;;21.77;4.50;;;;;;;8.81;100.00;99072.78;5016008;28;20030;-60
2024/01/03 09:59:44;;;;;;;23.40;4.60;;;;;;;8.82;100.00;99084.19;5018318;28;20407;-60
2024/01/03 10:02:11;;;;;;;27.70;4.70;;;;;;;8.84;100.00;99101.59;5019716;28;20057;-61
2024/01/03 10:04:37;;;;;;;26.30;4.88;;;;;;;8.87;100.00;99084.56;5020646;28;20026;-60
2024/01/03 10:07:02;;;;;;;24.23;4.95;;;;;;;8.92;100.00;99106.13;5018936;28;20029;-61
2024/01/03 10:09:40;;;;;;;24.85;5.10;;;;;;;8.89;100.00;99096.69;5021382;28;20449;-60
2024/01/03 10:12:15;;;;;;;24.60;4.70;;;;;;;8.93;100.00;99112.28;5010000;28;20037;-60
2024/01/03 10:14:41;;;;;;;23.02;5.05;;;;;;;8.95;100.00;99099.72;5013629;28;20530;-60
2024/01/03 10:17:09;;;;;;;27.40;4.65;;;;;;;8.96;100.00;99096.94;5021443;28;20080;-60
2024/01/03 10:19:35;;;;;;;27.63;4.65;;;;;;;8.99;100.00;99101.94;5014599;28;20029;-61
2024/01/03 10:22:02;;;;;;;21.65;4.60;;;;;;;9.01;100.00;99104.41;5018850;28;20047;-60
2024/01/03 10:24:28;;;;;;;20.50;4.72;;;;;;;9.02;100.00;99098.13;5019590;28;20119;-60
2024/01/03 10:27:09;;;;;;;21.35;4.80;;;;;;;9.06;100.00;99108.28;5017270;28;20113;-60
2024/01/03 10:29:36;;;;;;;20.38;4.57;;;;;;;9.13;100.00;99112.97;5019286;28;20044;-60
2024/01/03 10:32:05;;;;;;;23.08;4.28;;;;;;;9.16;100.00;99125.91;5019879;28;20387;-60
2024/01/03 10:34:30;;;;;;;24.47;5.27;;;;;;;9.22;100.00;99107.56;5020230;28;20033;-61
2024/01/03 10:36:56;;;;;;;22.35;5.28;;;;;;;9.29;100.00;99106.97;5020576;28;20299;-60
2024/01/03 10:39:22;;;;;;;26.92;5.85;;;;;;;9.33;100.00;99105.72;5015572;28;20048;-60
2024/01/03 10:41:49;;;;;;;21.35;5.07;;;;;;;9.35;100.00;99116.97;5020057;28;20067;-60
2024/01/03 10:44:18;;;;;;;23.35;4.85;;;;;;;9.36;100.00;99119.47;5009029;28;20052;-60
2024/01/03 10:46:45;;;;;;;20.88;4.20;;;;;;;9.36;100.00;99110.69;5016064;28;20097;-60
2024/01/03 10:49:11;;;;;;;22.02;5.72;;;;;;;9.37;100.00;99107.06;5020363;28;20053;-60
2024/01/03 10:51:40;;;;;;;26.08;5.22;;;;;;;9.38;100.00;99117.50;5015633;28;20439;-60
2024/01/03 10:54:13;;;;;;;;;;;;;;;9.43;100.00;99107.28;5017371;28;20030;-60
2024/01/03 10:56:38;;;;;;;23.80;4.80;;;;;;;9.39;100.00;99116.53;5017606;28;19935;-60
2024/01/03 10:59:05;;;;;;;24.90;4.80;;;;;;;9.40;100.00;99114.69;5014660;28;20468;-60
2024/01/03 11:01:55;;;;;;;22.65;5.13;;;;;;;9.41;100.00;99106.59;5016567;28;20033;-60
2024/01/03 11:04:32;;;;;;;22.73;4.30;;;;;;;9.49;100.00;99103.16;5013093;28;20044;-60
2024/01/03 11:07:22;;;;;;;18.95;4.72;;;;;;;9.49;100.00;99103.16;5014469;28;20080;-59
2024/01/03 11:09:47;;;;;;;23.05;5.05;;;;;;;9.46;100.00;99111.44;5008679;28;20100;-60
2024/01/03 11:12:15;;;;;;;21.30;5.13;;;;;;;9.43;100.00;99109.09;5011153;28;20105;-62
2024/01/03 11:14:41;;;;;;;19.23;4.50;;;;;;;9.39;100.00;99111.22;5010817;28;20033;-62
2024/01/03 11:17:09;;;;;;;21.80;4.47;;;;;;;9.32;100.00;99111.97;5014605;28;20064;-62
2024/01/03 11:19:35;;;;;;;21.27;5.13;;;;;;;9.24;100.00;99107.44;5010077;28;20033;-62
2024/01/03 11:22:03;;;;;;;22.98;4.40;;;;;;;9.16;100.00;99117.94;5012847;28;20034;-61
2024/01/03 11:24:28;;;;;;;20.25;4.63;;;;;;;9.10;100.00;99122.03;5014680;28;20018;-61